EZY66 EGCC-EGPH
Flight info
| Callsign | EZY66 |
|---|---|
| Flight time | 0h 47m |
| Altitude | 24000 |
| Route | POL N601 INPIP |
| Aircraft | A320/M-SDE3FGHIRWY/LB1 |
Departure
| Time | 2026-04-23 16:46 |
|---|---|
| Airport | Manchester Airport (EGCC) |
Arrival
| Time | 2026-04-23 17:34 |
|---|---|
| Airport | Edinburgh Airport (EGPH) |
| Time | Latitude | Longitude | Altitude | Speed | Heading |
|---|---|---|---|---|---|
| 2026-04-23 16:02 | 53.36123 | -2.26749 | 233 ft | 0 kts | 314° |
| 2026-04-23 16:35 | 53.36114 | -2.26735 | 236 ft | 3 kts | 314° |
| 2026-04-23 16:36 | 53.36100 | -2.26710 | 234 ft | 3 kts | 314° |
| 2026-04-23 16:36 | 53.36087 | -2.26688 | 235 ft | 3 kts | 310° |
| 2026-04-23 16:36 | 53.36077 | -2.26661 | 237 ft | 3 kts | 277° |
| 2026-04-23 16:36 | 53.36078 | -2.26630 | 237 ft | 3 kts | 244° |
| 2026-04-23 16:37 | 53.36080 | -2.26624 | 237 ft | 0 kts | 242° |
| 2026-04-23 16:39 | 53.36071 | -2.26652 | 236 ft | 9 kts | 242° |
| 2026-04-23 16:39 | 53.36069 | -2.26656 | 236 ft | 0 kts | 242° |
| 2026-04-23 16:39 | 53.36066 | -2.26665 | 236 ft | 5 kts | 240° |
| 2026-04-23 16:39 | 53.36024 | -2.26753 | 233 ft | 13 kts | 227° |
| 2026-04-23 16:40 | 53.35970 | -2.26837 | 233 ft | 9 kts | 198° |
| 2026-04-23 16:40 | 53.35903 | -2.26843 | 233 ft | 11 kts | 210° |
| 2026-04-23 16:40 | 53.35838 | -2.26971 | 235 ft | 17 kts | 238° |
| 2026-04-23 16:40 | 53.35764 | -2.27156 | 233 ft | 19 kts | 230° |
| 2026-04-23 16:41 | 53.35672 | -2.27340 | 233 ft | 22 kts | 230° |
| 2026-04-23 16:41 | 53.35581 | -2.27533 | 235 ft | 22 kts | 230° |
| 2026-04-23 16:41 | 53.35482 | -2.27737 | 233 ft | 23 kts | 231° |
| 2026-04-23 16:41 | 53.35435 | -2.27958 | 234 ft | 20 kts | 232° |
| 2026-04-23 16:42 | 53.35329 | -2.28123 | 234 ft | 22 kts | 224° |
| 2026-04-23 16:42 | 53.35222 | -2.28314 | 232 ft | 24 kts | 229° |
| 2026-04-23 16:42 | 53.35117 | -2.28539 | 232 ft | 25 kts | 232° |
| 2026-04-23 16:42 | 53.35069 | -2.28638 | 233 ft | 9 kts | 230° |
| 2026-04-23 16:43 | 53.35018 | -2.28735 | 236 ft | 0 kts | 224° |
| 2026-04-23 16:43 | 53.35007 | -2.28754 | 232 ft | 5 kts | 224° |
| 2026-04-23 16:43 | 53.34997 | -2.28771 | 232 ft | 0 kts | 224° |
| 2026-04-23 16:44 | 53.34980 | -2.28773 | 233 ft | 8 kts | 171° |
| 2026-04-23 16:44 | 53.34954 | -2.28731 | 233 ft | 1 kts | 139° |
| 2026-04-23 16:44 | 53.34954 | -2.28730 | 233 ft | 0 kts | 139° |
| 2026-04-23 16:45 | 53.34909 | -2.28665 | 233 ft | 21 kts | 139° |
| 2026-04-23 16:45 | 53.34875 | -2.28528 | 237 ft | 11 kts | 45° |
| 2026-04-23 16:46 | 53.34909 | -2.28455 | 235 ft | 32 kts | 53° |
| 2026-04-23 16:46 | 53.35260 | -2.27736 | 232 ft | 123 kts | 51° |
| 2026-04-23 16:46 | 53.35934 | -2.26332 | 406 ft | 177 kts | 51° |
| 2026-04-23 16:46 | 53.36749 | -2.24615 | 1127 ft | 193 kts | 50° |
| 2026-04-23 16:47 | 53.37613 | -2.22836 | 2113 ft | 207 kts | 51° |
| 2026-04-23 16:47 | 53.38525 | -2.20825 | 2958 ft | 226 kts | 53° |
| 2026-04-23 16:47 | 53.39501 | -2.18606 | 3659 ft | 247 kts | 52° |
| 2026-04-23 16:47 | 53.40583 | -2.16220 | 4277 ft | 266 kts | 52° |
| 2026-04-23 16:48 | 53.41738 | -2.13754 | 4508 ft | 270 kts | 51° |
| 2026-04-23 16:48 | 53.42917 | -2.11285 | 4567 ft | 271 kts | 51° |
| 2026-04-23 16:48 | 53.44197 | -2.09048 | 4566 ft | 269 kts | 33° |
| 2026-04-23 16:48 | 53.45921 | -2.07921 | 4567 ft | 268 kts | 5° |
| 2026-04-23 16:49 | 53.47176 | -2.07959 | 4571 ft | 267 kts | 351° |
| 2026-04-23 16:49 | 53.49592 | -2.08761 | 4565 ft | 267 kts | 348° |
| 2026-04-23 16:49 | 53.51422 | -2.09284 | 4566 ft | 267 kts | 351° |
| 2026-04-23 16:49 | 53.53271 | -2.09601 | 4571 ft | 268 kts | 355° |
| 2026-04-23 16:50 | 53.55129 | -2.09767 | 4568 ft | 268 kts | 357° |
| 2026-04-23 16:50 | 53.56989 | -2.09851 | 4568 ft | 267 kts | 358° |
| 2026-04-23 16:50 | 53.58851 | -2.09903 | 4568 ft | 268 kts | 358° |
| 2026-04-23 16:50 | 53.60717 | -2.09948 | 4568 ft | 268 kts | 358° |
| 2026-04-23 16:51 | 53.62578 | -2.09995 | 4568 ft | 268 kts | 358° |
| 2026-04-23 16:51 | 53.64439 | -2.10044 | 4568 ft | 268 kts | 358° |
| 2026-04-23 16:51 | 53.66299 | -2.10096 | 4570 ft | 268 kts | 358° |
| 2026-04-23 16:51 | 53.68162 | -2.10151 | 4568 ft | 268 kts | 358° |
| 2026-04-23 16:52 | 53.70030 | -2.10206 | 4569 ft | 268 kts | 358° |
| 2026-04-23 16:52 | 53.71890 | -2.10260 | 4570 ft | 267 kts | 358° |
| 2026-04-23 16:52 | 53.73750 | -2.10406 | 4573 ft | 269 kts | 351° |
| 2026-04-23 16:52 | 53.75573 | -2.11149 | 4877 ft | 271 kts | 339° |
| 2026-04-23 16:53 | 53.77317 | -2.12366 | 5789 ft | 271 kts | 337° |
| 2026-04-23 16:53 | 53.79045 | -2.13547 | 6915 ft | 272 kts | 337° |
| 2026-04-23 16:53 | 53.80822 | -2.14743 | 7919 ft | 277 kts | 337° |
| 2026-04-23 16:53 | 53.82625 | -2.15958 | 8921 ft | 281 kts | 337° |
| 2026-04-23 16:54 | 53.84455 | -2.17199 | 9874 ft | 287 kts | 337° |
| 2026-04-23 16:54 | 53.86372 | -2.18506 | 10399 ft | 309 kts | 337° |
| 2026-04-23 16:54 | 53.88442 | -2.19922 | 10804 ft | 331 kts | 337° |
| 2026-04-23 16:54 | 53.90622 | -2.21415 | 11519 ft | 340 kts | 337° |
| 2026-04-23 16:55 | 53.92822 | -2.22922 | 12439 ft | 343 kts | 337° |
| 2026-04-23 16:55 | 53.95056 | -2.24455 | 13286 ft | 348 kts | 337° |
| 2026-04-23 16:55 | 53.97310 | -2.26004 | 14105 ft | 352 kts | 337° |
| 2026-04-23 16:55 | 53.99603 | -2.27581 | 14901 ft | 357 kts | 337° |
| 2026-04-23 16:56 | 54.01913 | -2.29172 | 15689 ft | 361 kts | 337° |
| 2026-04-23 16:56 | 54.04256 | -2.30789 | 16431 ft | 365 kts | 337° |
| 2026-04-23 16:56 | 54.05823 | -2.31873 | 16914 ft | 368 kts | 337° |
| 2026-04-23 16:56 | 54.09016 | -2.34085 | 17864 ft | 373 kts | 337° |
| 2026-04-23 16:57 | 54.11438 | -2.35765 | 18562 ft | 377 kts | 337° |
| 2026-04-23 16:57 | 54.13885 | -2.37464 | 19204 ft | 382 kts | 337° |
| 2026-04-23 16:57 | 54.16369 | -2.39191 | 19849 ft | 387 kts | 337° |
| 2026-04-23 16:57 | 54.18845 | -2.40911 | 20495 ft | 390 kts | 337° |
| 2026-04-23 16:58 | 54.21368 | -2.42664 | 21133 ft | 394 kts | 337° |
| 2026-04-23 16:58 | 54.23922 | -2.44441 | 21726 ft | 398 kts | 337° |
| 2026-04-23 16:58 | 54.26497 | -2.46235 | 22318 ft | 402 kts | 337° |
| 2026-04-23 16:58 | 54.29093 | -2.48046 | 22959 ft | 404 kts | 337° |
| 2026-04-23 16:59 | 54.31705 | -2.49871 | 23509 ft | 408 kts | 337° |
| 2026-04-23 16:59 | 54.34345 | -2.51718 | 23880 ft | 412 kts | 337° |
| 2026-04-23 16:59 | 54.37013 | -2.53588 | 23991 ft | 413 kts | 337° |
| 2026-04-23 16:59 | 54.38771 | -2.54821 | 24000 ft | 414 kts | 337° |
| 2026-04-23 17:00 | 54.41439 | -2.56694 | 24000 ft | 413 kts | 337° |
| 2026-04-23 17:00 | 54.44094 | -2.58561 | 24000 ft | 412 kts | 337° |
| 2026-04-23 17:00 | 54.46738 | -2.60424 | 24000 ft | 412 kts | 337° |
| 2026-04-23 17:00 | 54.49391 | -2.62295 | 24000 ft | 413 kts | 337° |
| 2026-04-23 17:01 | 54.52047 | -2.64172 | 24000 ft | 412 kts | 337° |
| 2026-04-23 17:01 | 54.54699 | -2.66050 | 24000 ft | 412 kts | 337° |
| 2026-04-23 17:01 | 54.57350 | -2.67929 | 24000 ft | 412 kts | 337° |
| 2026-04-23 17:01 | 54.59999 | -2.69810 | 24000 ft | 412 kts | 337° |
| 2026-04-23 17:02 | 54.62652 | -2.71697 | 24000 ft | 411 kts | 337° |
| 2026-04-23 17:02 | 54.65297 | -2.73581 | 24000 ft | 411 kts | 337° |
| 2026-04-23 17:02 | 54.67942 | -2.75467 | 23974 ft | 412 kts | 337° |
| 2026-04-23 17:02 | 54.70590 | -2.77357 | 23751 ft | 411 kts | 337° |
| 2026-04-23 17:03 | 54.73224 | -2.79240 | 23500 ft | 408 kts | 337° |
| 2026-04-23 17:03 | 54.75837 | -2.81112 | 23245 ft | 406 kts | 337° |
| 2026-04-23 17:03 | 54.78445 | -2.82982 | 23001 ft | 405 kts | 337° |
| 2026-04-23 17:03 | 54.81042 | -2.84847 | 22745 ft | 403 kts | 337° |
| 2026-04-23 17:04 | 54.83628 | -2.86706 | 22502 ft | 401 kts | 337° |
| 2026-04-23 17:04 | 54.86203 | -2.88560 | 22251 ft | 400 kts | 337° |
| 2026-04-23 17:04 | 54.88766 | -2.90409 | 22002 ft | 398 kts | 337° |
| 2026-04-23 17:04 | 54.91291 | -2.92231 | 21753 ft | 396 kts | 337° |
| 2026-04-23 17:05 | 54.93834 | -2.94070 | 21503 ft | 395 kts | 337° |
| 2026-04-23 17:05 | 54.96367 | -2.95904 | 21253 ft | 394 kts | 337° |
| 2026-04-23 17:05 | 54.98889 | -2.97733 | 21005 ft | 392 kts | 337° |
| 2026-04-23 17:05 | 55.01402 | -2.99558 | 20753 ft | 390 kts | 337° |
| 2026-04-23 17:06 | 55.03905 | -3.01377 | 20503 ft | 389 kts | 336° |
| 2026-04-23 17:06 | 55.06400 | -3.03193 | 20255 ft | 388 kts | 336° |
| 2026-04-23 17:06 | 55.08885 | -3.05005 | 20050 ft | 386 kts | 336° |
| 2026-04-23 17:06 | 55.11361 | -3.06812 | 20003 ft | 386 kts | 336° |
| 2026-04-23 17:07 | 55.13845 | -3.08628 | 20000 ft | 387 kts | 336° |
| 2026-04-23 17:07 | 55.16327 | -3.10445 | 19993 ft | 387 kts | 336° |
| 2026-04-23 17:07 | 55.18791 | -3.12250 | 19939 ft | 380 kts | 336° |
| 2026-04-23 17:07 | 55.21195 | -3.14014 | 19843 ft | 369 kts | 336° |
| 2026-04-23 17:08 | 55.23520 | -3.15723 | 19724 ft | 355 kts | 336° |
| 2026-04-23 17:08 | 55.25754 | -3.17366 | 19586 ft | 342 kts | 336° |
| 2026-04-23 17:08 | 55.27936 | -3.18953 | 19229 ft | 337 kts | 339° |
| 2026-04-23 17:08 | 55.30205 | -3.19944 | 18769 ft | 336 kts | 352° |
| 2026-04-23 17:09 | 55.32534 | -3.20031 | 18315 ft | 335 kts | 5° |
| 2026-04-23 17:09 | 55.34845 | -3.19641 | 17878 ft | 333 kts | 5° |
| 2026-04-23 17:09 | 55.34948 | -3.19624 | 17859 ft | 333 kts | 5° |
| 2026-04-23 17:10 | 55.35065 | -3.19605 | 17837 ft | 333 kts | 5° |
| 2026-04-23 17:10 | 55.37363 | -3.19241 | 17381 ft | 331 kts | 4° |
| 2026-04-23 17:10 | 55.39652 | -3.18887 | 16939 ft | 329 kts | 4° |
| 2026-04-23 17:11 | 55.41895 | -3.18541 | 16525 ft | 327 kts | 4° |
| 2026-04-23 17:11 | 55.44153 | -3.18190 | 16084 ft | 325 kts | 4° |
| 2026-04-23 17:11 | 55.46398 | -3.17840 | 15663 ft | 323 kts | 4° |
| 2026-04-23 17:11 | 55.48626 | -3.17491 | 15242 ft | 320 kts | 4° |
| 2026-04-23 17:12 | 55.50837 | -3.17144 | 14848 ft | 318 kts | 4° |
| 2026-04-23 17:12 | 55.53038 | -3.16798 | 14399 ft | 316 kts | 4° |
| 2026-04-23 17:12 | 55.55220 | -3.16455 | 13982 ft | 314 kts | 4° |
| 2026-04-23 17:12 | 55.55495 | -3.16412 | 13928 ft | 314 kts | 4° |
| 2026-04-23 17:17 | 55.56154 | -3.16308 | 13788 ft | 314 kts | 4° |
| 2026-04-23 17:17 | 55.58321 | -3.15966 | 13353 ft | 312 kts | 4° |
| 2026-04-23 17:18 | 55.62649 | -3.15285 | 12147 ft | 309 kts | 4° |
| 2026-04-23 17:18 | 55.64791 | -3.14947 | 11463 ft | 308 kts | 4° |
| 2026-04-23 17:18 | 55.66300 | -3.14708 | 10968 ft | 308 kts | 4° |
| 2026-04-23 17:19 | 55.68438 | -3.14395 | 10261 ft | 308 kts | 0° |
| 2026-04-23 17:19 | 55.70520 | -3.15058 | 9563 ft | 304 kts | 336° |
| 2026-04-23 17:19 | 55.72233 | -3.17155 | 8865 ft | 300 kts | 311° |
| 2026-04-23 17:19 | 55.73293 | -3.20308 | 8167 ft | 298 kts | 289° |
| 2026-04-23 17:20 | 55.73796 | -3.23859 | 7468 ft | 296 kts | 280° |
| 2026-04-23 17:20 | 55.74563 | -3.31020 | 6071 ft | 294 kts | 282° |
| 2026-04-23 17:21 | 55.75541 | -3.38048 | 4670 ft | 292 kts | 284° |
| 2026-04-23 17:21 | 55.76074 | -3.41517 | 3974 ft | 291 kts | 285° |
| 2026-04-23 17:21 | 55.77107 | -3.48100 | 3509 ft | 256 kts | 285° |
| 2026-04-23 17:22 | 55.77564 | -3.51011 | 3510 ft | 238 kts | 285° |
| 2026-04-23 17:22 | 55.78459 | -3.56744 | 3511 ft | 239 kts | 285° |
| 2026-04-23 17:23 | 55.79346 | -3.62448 | 3502 ft | 239 kts | 285° |
| 2026-04-23 17:23 | 55.79787 | -3.65299 | 3510 ft | 239 kts | 285° |
| 2026-04-23 17:23 | 55.81894 | -3.69447 | 3404 ft | 232 kts | 343° |
| 2026-04-23 17:24 | 55.83439 | -3.69473 | 3403 ft | 218 kts | 17° |
| 2026-04-23 17:24 | 55.84626 | -3.68064 | 3423 ft | 197 kts | 50° |
| 2026-04-23 17:24 | 55.85929 | -3.63919 | 3407 ft | 198 kts | 58° |
| 2026-04-23 17:25 | 55.87354 | -3.59813 | 3408 ft | 193 kts | 58° |
| 2026-04-23 17:25 | 55.88049 | -3.57767 | 3405 ft | 193 kts | 60° |
| 2026-04-23 17:26 | 55.89371 | -3.53812 | 3409 ft | 183 kts | 58° |
| 2026-04-23 17:26 | 55.90689 | -3.49937 | 3407 ft | 182 kts | 58° |
| 2026-04-23 17:27 | 55.90743 | -3.45733 | 3410 ft | 182 kts | 128° |
| 2026-04-23 17:27 | 55.89913 | -3.44031 | 3405 ft | 182 kts | 139° |
| 2026-04-23 17:27 | 55.88776 | -3.43169 | 3408 ft | 180 kts | 180° |
| 2026-04-23 17:27 | 55.87621 | -3.43850 | 3409 ft | 178 kts | 221° |
| 2026-04-23 17:28 | 55.86869 | -3.45581 | 3407 ft | 177 kts | 237° |
| 2026-04-23 17:28 | 55.86174 | -3.47370 | 3313 ft | 174 kts | 236° |
| 2026-04-23 17:28 | 55.85487 | -3.49132 | 2987 ft | 174 kts | 236° |
| 2026-04-23 17:28 | 55.84798 | -3.50902 | 2612 ft | 174 kts | 236° |
| 2026-04-23 17:29 | 55.84117 | -3.52652 | 2435 ft | 173 kts | 236° |
| 2026-04-23 17:29 | 55.83602 | -3.54572 | 2407 ft | 173 kts | 264° |
| 2026-04-23 17:29 | 55.84760 | -3.58024 | 2412 ft | 176 kts | 329° |
| 2026-04-23 17:30 | 55.85517 | -3.58529 | 2404 ft | 177 kts | 351° |
| 2026-04-23 17:30 | 55.88128 | -3.56853 | 2407 ft | 180 kts | 45° |
| 2026-04-23 17:30 | 55.88908 | -3.55111 | 2232 ft | 171 kts | 56° |
| 2026-04-23 17:31 | 55.89515 | -3.53389 | 2010 ft | 159 kts | 58° |
| 2026-04-23 17:31 | 55.90063 | -3.51774 | 1804 ft | 150 kts | 58° |
| 2026-04-23 17:31 | 55.90598 | -3.50218 | 1617 ft | 148 kts | 59° |
| 2026-04-23 17:31 | 55.91130 | -3.48637 | 1418 ft | 147 kts | 57° |
| 2026-04-23 17:32 | 55.91654 | -3.47083 | 1236 ft | 145 kts | 59° |
| 2026-04-23 17:32 | 55.92181 | -3.45548 | 1038 ft | 145 kts | 58° |
| 2026-04-23 17:32 | 55.92702 | -3.44007 | 836 ft | 145 kts | 59° |
| 2026-04-23 17:32 | 55.93227 | -3.42477 | 647 ft | 144 kts | 58° |
| 2026-04-23 17:33 | 55.93748 | -3.40945 | 438 ft | 144 kts | 58° |
| 2026-04-23 17:33 | 55.94269 | -3.39434 | 236 ft | 143 kts | 58° |
| 2026-04-23 17:33 | 55.94773 | -3.37919 | 117 ft | 139 kts | 59° |
| 2026-04-23 17:33 | 55.95183 | -3.36712 | 113 ft | 77 kts | 59° |
| 2026-04-23 17:34 | 55.95334 | -3.36268 | 107 ft | 34 kts | 60° |
| 2026-04-23 17:34 | 55.95456 | -3.35910 | 109 ft | 31 kts | 59° |
| 2026-04-23 17:34 | 55.95505 | -3.35446 | 112 ft | 19 kts | 150° |
| 2026-04-23 17:35 | 55.95420 | -3.35443 | 112 ft | 13 kts | 228° |
| 2026-04-23 17:35 | 55.95317 | -3.35734 | 110 ft | 19 kts | 237° |
| 2026-04-23 17:35 | 55.95235 | -3.35976 | 110 ft | 12 kts | 219° |
| 2026-04-23 17:36 | 55.95154 | -3.35937 | 112 ft | 14 kts | 145° |
| 2026-04-23 17:36 | 55.95086 | -3.35795 | 112 ft | 15 kts | 159° |
| 2026-04-23 17:36 | 55.94991 | -3.35856 | 112 ft | 15 kts | 201° |
| 2026-04-23 17:36 | 55.94904 | -3.35900 | 112 ft | 11 kts | 211° |
| 2026-04-23 17:37 | 55.94868 | -3.35935 | 112 ft | 2 kts | 213° |
| 2026-04-23 17:37 | 55.94861 | -3.35944 | 111 ft | 0 kts | 211° |